Time;durP1;ratioP1;P1;durP2;ratioP2;P2;SDS_P1;SDS_P2;PMS_P1;PMS_P2;Temp;Humidity;BMP_temperature;BMP_pressure;BME280_temperature;BME280_humidity;BME280_pressure;Samples;Min_cycle;Max_cycle;Signal;HPM_P1;HPM_P2
2022/01/01 00:02:16;;;;;;;;;47.25;37.50;;;;;13.07;81.35;102317.06;5077228;27;45309;-67
2022/01/01 00:04:43;;;;;;;;;41.75;35.25;;;;;13.03;81.96;102301.91;5078307;28;45608;-67
2022/01/01 00:07:09;;;;;;;;;47.33;36.67;;;;;13.15;81.60;102324.66;5080679;27;45304;-67
2022/01/01 00:09:35;;;;;;;;;43.33;34.67;;;;;13.20;81.29;102317.81;5069457;27;45340;-67
2022/01/01 00:12:00;;;;;;;;;46.75;38.25;;;;;13.21;81.20;102324.13;5092156;27;45265;-67
2022/01/01 00:14:26;;;;;;;;;44.67;34.00;;;;;13.21;81.03;102316.81;5071280;27;46516;-66
2022/01/01 00:16:51;;;;;;;;;50.25;40.00;;;;;13.27;80.90;102323.63;5094442;27;45369;-66
2022/01/01 00:19:16;;;;;;;;;51.00;40.50;;;;;13.20;81.37;102322.38;5075586;27;45742;-67
2022/01/01 00:21:43;;;;;;;;;47.00;36.25;;;;;13.22;81.39;102325.88;5079731;28;45305;-66
2022/01/01 00:24:09;;;;;;;;;44.50;38.25;;;;;13.27;81.13;102330.94;5093420;27;47171;-66
2022/01/01 00:26:34;;;;;;;;;47.75;39.75;;;;;13.28;81.22;102324.47;5079160;28;45375;-66
2022/01/01 00:28:59;;;;;;;;;50.75;39.75;;;;;13.28;80.83;102317.16;5080250;27;45310;-66
2022/01/01 00:31:25;;;;;;;;;50.75;41.50;;;;;13.28;80.30;102313.56;5098286;27;45327;-66
2022/01/01 00:33:50;;;;;;;;;53.25;42.75;;;;;13.26;80.29;102319.16;5070068;27;46069;-67
2022/01/01 00:36:16;;;;;;;;;52.75;43.75;;;;;13.27;80.32;102314.56;5082316;27;45356;-66
2022/01/01 00:38:41;;;;;;;;;56.00;44.50;;;;;13.17;80.35;102315.31;5067985;27;45482;-66
2022/01/01 00:41:06;;;;;;;;;56.25;43.00;;;;;13.06;80.92;102320.78;5082855;27;45401;-67
2022/01/01 00:43:32;;;;;;;;;51.00;42.50;;;;;13.13;80.41;102330.22;5082191;27;47287;-67
2022/01/01 00:45:57;;;;;;;;;55.25;44.25;;;;;13.14;79.98;102329.22;5099078;27;45393;-67
2022/01/01 00:48:22;;;;;;;;;53.00;39.75;;;;;13.16;80.11;102329.06;5075714;27;45477;-67
2022/01/01 00:50:48;;;;;;;;;48.75;40.25;;;;;13.11;80.32;102321.25;5083509;28;45420;-66
2022/01/01 00:53:14;;;;;;;;;53.00;41.75;;;;;13.14;79.81;102331.97;5083070;27;46506;-67
2022/01/01 00:55:39;;;;;;;;;53.25;42.25;;;;;13.15;79.86;102328.22;5073643;27;45376;-67
2022/01/01 00:58:05;;;;;;;;;53.00;42.00;;;;;13.14;79.87;102334.69;5086051;27;45289;-67
2022/01/01 01:00:30;;;;;;;;;54.50;44.50;;;;;13.10;80.40;102321.38;5076746;27;45269;-67
2022/01/01 01:02:55;;;;;;;;;53.75;42.50;;;;;13.10;80.17;102333.16;5089575;27;45515;-67
2022/01/01 01:05:21;;;;;;;;;56.50;44.25;;;;;13.12;80.08;102330.31;5081461;27;45258;-67
2022/01/01 01:07:46;;;;;;;;;56.75;45.00;;;;;13.14;80.10;102323.78;5081540;28;46086;-67
2022/01/01 01:10:13;;;;;;;;;53.25;42.75;;;;;13.13;80.26;102318.44;5081542;28;45151;-67
2022/01/01 01:12:45;;;;;;;;;62.00;49.00;;;;;13.08;80.40;102318.75;5078881;27;46373;-67
2022/01/01 01:15:17;;;;;;;;;54.25;43.00;;;;;13.07;79.88;102314.31;5083678;28;45297;-67
2022/01/01 01:17:50;;;;;;;;;50.75;42.00;;;;;13.02;80.41;102308.34;5082909;27;45388;-66
2022/01/01 01:20:17;;;;;;;;;52.75;43.00;;;;;13.02;80.62;102316.53;5089839;27;45621;-67
2022/01/01 01:22:43;;;;;;;;;55.25;43.75;;;;;12.98;80.67;102311.47;5071969;28;46212;-66
2022/01/01 01:25:10;;;;;;;;;46.75;39.75;;;;;13.00;80.22;102321.28;5083593;27;45268;-67
2022/01/01 01:27:36;;;;;;;;;53.00;42.25;;;;;12.95;80.43;102315.31;5093760;27;45361;-67
2022/01/01 01:30:08;;;;;;;;;47.50;39.25;;;;;12.94;80.65;102319.03;5086281;27;45470;-67
2022/01/01 01:32:35;;;;;;;;;49.25;40.00;;;;;12.94;80.47;102312.69;5089879;27;45388;-66
2022/01/01 01:35:00;;;;;;;;;52.25;43.25;;;;;12.90;80.51;102312.09;5100559;27;45341;-67
2022/01/01 01:37:26;;;;;;;;;51.25;41.75;;;;;12.92;80.54;102311.97;5079876;27;45613;-66
2022/01/01 01:39:52;;;;;;;;;56.00;43.25;;;;;12.85;80.57;102308.91;5084048;28;45243;-66
2022/01/01 01:42:17;;;;;;;;;53.00;41.75;;;;;12.87;80.65;102312.34;5080816;27;45614;-66
2022/01/01 01:44:45;;;;;;;;;48.00;40.75;;;;;12.78;81.37;102313.13;5082436;28;45353;-67
2022/01/01 01:47:16;;;;;;;;;49.75;39.50;;;;;12.75;81.03;102316.06;5081857;27;45436;-66
2022/01/01 01:49:43;;;;;;;;;43.50;38.00;;;;;12.74;80.85;102317.06;5071329;28;45340;-66
2022/01/01 01:52:09;;;;;;;;;48.25;38.25;;;;;12.71;80.72;102328.25;5075921;28;46346;-67
2022/01/01 01:54:35;;;;;;;;;50.50;41.75;;;;;12.65;81.23;102317.81;5073129;28;45512;-67
2022/01/01 01:57:01;;;;;;;;;42.50;34.75;;;;;12.60;81.11;102320.03;5077008;28;45419;-67
2022/01/01 01:59:26;;;;;;;;;40.50;34.75;;;;;12.56;81.20;102311.25;5082297;27;45617;-66
2022/01/01 02:01:52;;;;;;;;;44.50;35.00;;;;;12.50;81.73;102309.00;5076983;28;45552;-66
2022/01/01 02:04:18;;;;;;;;;41.50;34.00;;;;;12.44;81.57;102314.94;5079098;28;45357;-66
2022/01/01 02:06:44;;;;;;;;;45.50;33.75;;;;;12.37;81.68;102308.25;5096745;27;45399;-66
2022/01/01 02:09:11;;;;;;;;;40.75;33.50;;;;;12.34;82.09;102319.41;5076131;27;45517;-66
2022/01/01 02:11:37;;;;;;;;;40.67;35.67;;;;;12.30;82.12;102316.03;5077985;28;45919;-66
2022/01/01 02:14:09;;;;;;;;;46.00;36.25;;;;;12.33;82.15;102321.25;5074725;27;45349;-66
2022/01/01 02:17:18;;;;;;;;;38.75;33.00;;;;;12.35;82.11;102329.28;5097872;27;45385;-67
2022/01/01 02:19:28;;;;;;;;;44.00;37.75;;;;;12.40;81.79;102329.81;5077651;27;45353;-66
2022/01/01 02:21:56;;;;;;;;;39.00;33.25;;;;;12.40;82.10;102325.25;5091370;27;46697;-66
2022/01/01 02:24:24;;;;;;;;;48.50;37.75;;;;;12.39;81.60;102315.31;5073746;27;45325;-66
2022/01/01 02:26:49;;;;;;;;;46.25;38.50;;;;;12.38;81.81;102320.88;5100193;27;45495;-67
2022/01/01 02:29:15;;;;;;;;;45.25;36.75;;;;;12.36;81.76;102311.97;5079002;27;45321;-67
2022/01/01 02:31:40;;;;;;;;;37.25;34.75;;;;;12.30;81.58;102304.28;5069564;28;45598;-66
2022/01/01 02:34:09;;;;;;;;;43.75;35.25;;;;;12.30;81.74;102307.00;5069972;27;45280;-66
2022/01/01 02:36:38;;;;;;;;;40.50;34.25;;;;;12.23;82.16;102306.63;5079114;28;45261;-66
2022/01/01 02:39:19;;;;;;;;;44.50;37.75;;;;;12.18;81.55;102302.53;5072453;28;45424;-66
2022/01/01 02:41:48;;;;;;;;;45.50;36.00;;;;;12.14;81.82;102299.16;5082477;28;45424;-66
2022/01/01 02:44:14;;;;;;;;;51.50;40.25;;;;;12.08;81.73;102286.03;5079779;28;45358;-66
2022/01/01 02:46:39;;;;;;;;;47.00;38.25;;;;;12.06;82.44;102291.59;5083038;27;45306;-66
2022/01/01 02:49:05;;;;;;;;;43.75;36.75;;;;;12.00;82.66;102285.75;5078366;27;45529;-66
2022/01/01 02:51:30;;;;;;;;;40.25;34.25;;;;;11.99;81.92;102281.28;5083785;27;46905;-66
2022/01/01 02:53:56;;;;;;;;;51.00;42.50;;;;;11.97;82.18;102288.75;5075066;27;45390;-66
2022/01/01 02:56:22;;;;;;;;;45.00;37.25;;;;;11.91;82.81;102292.78;5073240;28;45404;-66
2022/01/01 02:58:47;;;;;;;;;46.75;37.25;;;;;11.89;82.39;102293.91;5076724;27;45387;-66
2022/01/01 03:01:12;;;;;;;;;36.50;34.00;;;;;11.88;82.46;102292.19;5072499;28;45588;-66
2022/01/01 03:03:38;;;;;;;;;46.75;36.50;;;;;11.86;82.43;102296.88;5080165;27;45211;-66
2022/01/01 03:06:03;;;;;;;;;41.50;36.75;;;;;11.90;82.88;102306.56;5079964;27;45313;-66
2022/01/01 03:08:29;;;;;;;;;47.75;38.50;;;;;11.91;82.64;102305.53;5076795;28;45413;-66
2022/01/01 03:10:55;;;;;;;;;42.50;36.00;;;;;11.87;82.95;102301.34;5083202;27;45262;-66
2022/01/01 03:13:20;;;;;;;;;44.00;37.25;;;;;11.88;82.45;102305.78;5103751;27;45271;-65
2022/01/01 03:15:46;;;;;;;;;47.75;38.25;;;;;11.86;82.81;102308.63;5082837;27;45330;-66
2022/01/01 03:18:11;;;;;;;;;39.25;34.00;;;;;11.84;82.24;102305.16;5086752;27;45415;-66
2022/01/01 03:20:37;;;;;;;;;51.50;40.25;;;;;11.85;82.91;102308.75;5084647;27;46266;-66
2022/01/01 03:23:03;;;;;;;;;38.50;32.75;;;;;11.83;82.75;102310.75;5078165;27;45413;-66
2022/01/01 03:25:29;;;;;;;;;39.75;35.75;;;;;11.85;82.68;102317.78;5086331;27;45339;-66
2022/01/01 03:27:54;;;;;;;;;49.00;40.00;;;;;11.89;82.86;102312.97;5090416;27;45362;-67
2022/01/01 03:30:20;;;;;;;;;40.25;36.00;;;;;11.88;82.89;102305.78;5086899;27;46279;-67
2022/01/01 03:32:45;;;;;;;;;52.50;40.50;;;;;11.91;82.46;102305.53;5089245;27;45523;-67
2022/01/01 03:35:11;;;;;;;;;47.75;36.00;;;;;11.93;82.65;102306.28;5075464;28;45376;-67
2022/01/01 03:37:37;;;;;;;;;42.75;37.50;;;;;11.93;82.51;102299.00;5078949;27;45576;-67
2022/01/01 03:40:04;;;;;;;;;41.50;37.75;;;;;11.98;82.19;102306.81;5080024;27;45346;-67
2022/01/01 03:42:29;;;;;;;;;52.00;40.25;;;;;11.92;82.28;102297.25;5093586;27;45308;-67
2022/01/01 03:44:55;;;;;;;;;56.25;42.00;;;;;11.89;82.37;102297.50;5074083;27;45289;-67
2022/01/01 03:47:20;;;;;;;;;48.75;38.50;;;;;11.86;81.93;102295.00;5081041;27;45535;-67
2022/01/01 03:49:46;;;;;;;;;49.50;40.00;;;;;11.74;82.00;102292.34;5073824;27;46115;-67
2022/01/01 03:52:11;;;;;;;;;49.75;41.00;;;;;11.71;82.43;102299.75;5080153;28;45245;-67
2022/01/01 03:54:37;;;;;;;;;54.00;42.00;;;;;11.67;82.70;102298.28;5081717;28;46039;-67
2022/01/01 03:57:03;;;;;;;;;45.50;36.75;;;;;11.63;82.56;102296.75;5081361;27;45483;-67
2022/01/01 03:59:28;;;;;;;;;40.50;35.50;;;;;11.61;82.99;102293.31;5071636;27;45492;-67
2022/01/01 04:01:56;;;;;;;;;43.25;38.75;;;;;11.59;83.31;102300.72;5074755;28;45231;-67
2022/01/01 04:04:25;;;;;;;;;34.75;32.00;;;;;11.57;83.29;102301.78;5078124;28;45500;-67
2022/01/01 04:06:50;;;;;;;;;38.75;33.00;;;;;11.56;83.40;102295.47;5081812;27;45344;-67
2022/01/01 04:09:15;;;;;;;;;37.00;32.00;;;;;11.57;83.41;102290.91;5070752;28;45979;-67
2022/01/01 04:11:42;;;;;;;;;42.75;35.00;;;;;11.55;83.05;102287.44;5091605;27;45318;-67
2022/01/01 04:14:12;;;;;;;;;35.75;33.00;;;;;11.52;83.33;102282.25;5074374;28;45270;-67
2022/01/01 04:16:38;;;;;;;;;39.50;36.00;;;;;11.51;83.39;102286.81;5078029;28;45254;-67
2022/01/01 04:19:03;;;;;;;;;41.50;35.25;;;;;11.51;83.16;102296.81;5076991;27;46084;-67
2022/01/01 04:21:28;;;;;;;;;40.50;34.25;;;;;11.49;83.83;102285.19;5091430;27;45373;-67
2022/01/01 04:23:54;;;;;;;;;36.50;33.25;;;;;11.43;83.29;102280.22;5077318;28;45288;-67
2022/01/01 04:26:19;;;;;;;;;42.00;36.25;;;;;11.38;83.65;102287.88;5080917;28;45283;-67
2022/01/01 04:28:45;;;;;;;;;32.75;31.50;;;;;11.35;83.60;102278.06;5075221;27;45661;-67
2022/01/01 04:31:10;;;;;;;;;42.75;36.75;;;;;11.35;83.82;102274.47;5100447;27;45287;-67
2022/01/01 04:33:36;;;;;;;;;36.00;32.25;;;;;11.31;83.96;102279.31;5083578;28;45327;-67
2022/01/01 04:36:02;;;;;;;;;33.67;31.67;;;;;11.31;84.44;102279.31;5082564;28;45344;-67
2022/01/01 04:40:59;;;;;;;;;35.75;32.25;;;;;11.30;84.27;102266.69;5084627;28;45337;-67
2022/01/01 04:43:24;;;;;;;;;36.75;34.00;;;;;11.29;84.05;102270.38;5076443;27;45403;-67
2022/01/01 04:45:50;;;;;;;;;39.25;34.00;;;;;11.25;84.13;102272.44;5082095;28;45297;-67
2022/01/01 04:48:15;;;;;;;;;33.75;31.50;;;;;11.22;84.46;102285.44;5079217;27;45675;-67
2022/01/01 04:50:40;;;;;;;;;44.75;33.50;;;;;11.22;84.76;102280.84;5070980;28;45894;-67
2022/01/01 04:53:06;;;;;;;;;35.50;30.00;;;;;11.23;84.06;102281.72;5079427;27;45266;-67
2022/01/01 04:55:31;;;;;;;;;35.33;32.00;;;;;11.22;84.03;102274.53;5076344;27;45301;-67
2022/01/01 04:57:56;;;;;;;;;34.50;30.75;;;;;11.24;84.64;102278.03;5090479;27;46354;-67
2022/01/01 05:00:22;;;;;;;;;30.50;26.00;;;;;11.21;84.17;102276.41;5076590;27;45287;-67
2022/01/01 05:02:47;;;;;;;;;29.25;28.50;;;;;11.16;84.40;102275.00;5092891;27;45377;-67
2022/01/01 05:05:12;;;;;;;;;39.00;33.25;;;;;11.13;84.73;102286.09;5082903;27;45512;-67
2022/01/01 05:07:38;;;;;;;;;38.67;31.67;;;;;11.13;84.33;102286.97;5083187;28;48003;-67
2022/01/01 05:10:05;;;;;;;;;40.75;32.50;;;;;11.16;84.62;102291.34;5077970;27;45321;-67
2022/01/01 05:12:30;;;;;;;;;32.00;27.33;;;;;11.15;84.07;102295.91;5093399;27;45397;-67
2022/01/01 05:14:56;;;;;;;;;36.67;31.00;;;;;11.17;83.93;102301.25;5078736;27;45497;-67
2022/01/01 05:17:21;;;;;;;;;37.25;28.50;;;;;11.17;83.66;102302.09;5095395;27;46961;-67
2022/01/01 05:19:46;;;;;;;;;38.00;31.50;;;;;11.16;83.48;102302.22;5093928;27;45336;-67
2022/01/01 05:22:12;;;;;;;;;37.33;28.67;;;;;11.15;83.71;102300.47;5078221;27;45314;-67
2022/01/01 05:24:37;;;;;;;;;37.67;33.33;;;;;11.15;83.54;102306.78;5076865;27;45314;-67
2022/01/01 05:27:03;;;;;;;;;36.00;32.00;;;;;11.10;83.82;102298.09;5100000;27;45408;-67
2022/01/01 05:29:28;;;;;;;;;43.00;36.25;;;;;11.04;83.76;102292.22;5076446;27;45341;-67
2022/01/01 05:31:54;;;;;;;;;36.75;33.00;;;;;11.08;84.13;102302.78;5082595;27;45303;-67
2022/01/01 05:34:19;;;;;;;;;41.25;33.75;;;;;11.02;83.67;102294.22;5080680;27;45259;-67
2022/01/01 05:36:44;;;;;;;;;39.00;36.00;;;;;11.05;83.59;102288.53;5084278;27;46417;-67
2022/01/01 05:39:10;;;;;;;;;40.67;33.00;;;;;11.07;83.51;102281.13;5072920;28;45329;-67
2022/01/01 05:41:36;;;;;;;;;40.67;34.00;;;;;11.11;83.45;102293.50;5085073;28;45550;-67
2022/01/01 05:44:01;;;;;;;;;35.00;31.25;;;;;11.06;83.92;102279.38;5073698;27;45419;-67
2022/01/01 05:46:29;;;;;;;;;40.50;34.00;;;;;11.08;83.57;102278.31;5084580;28;46631;-67
2022/01/01 05:48:54;;;;;;;;;39.75;34.75;;;;;11.08;83.80;102275.59;5076829;27;45548;-67
2022/01/01 05:51:20;;;;;;;;;40.50;33.25;;;;;11.03;83.22;102268.75;5073507;28;45570;-67
2022/01/01 05:53:45;;;;;;;;;37.00;34.00;;;;;11.03;83.87;102279.63;5078528;27;45353;-67
2022/01/01 05:56:11;;;;;;;;;39.00;36.25;;;;;11.02;83.67;102283.34;5073156;28;45626;-67
2022/01/01 05:58:36;;;;;;;;;35.00;33.00;;;;;10.92;83.77;102284.00;5081581;27;45449;-67
2022/01/01 06:01:01;;;;;;;;;31.67;31.00;;;;;10.87;84.22;102269.03;5082913;27;45273;-67
2022/01/01 06:03:27;;;;;;;;;33.67;29.00;;;;;10.85;83.98;102266.41;5083334;27;45373;-67
2022/01/01 06:05:52;;;;;;;;;31.33;27.33;;;;;10.84;84.41;102270.09;5081134;27;45413;-67
2022/01/01 06:08:18;;;;;;;;;34.00;31.33;;;;;10.84;84.29;102271.94;5077899;27;45457;-67
2022/01/01 06:10:43;;;;;;;;;40.33;32.00;;;;;10.82;83.88;102261.19;5095297;27;45331;-67
2022/01/01 06:13:09;;;;;;;;;32.33;30.00;;;;;10.82;84.04;102277.50;5090080;27;45537;-67
2022/01/01 06:15:35;;;;;;;;;38.00;33.75;;;;;10.81;84.00;102270.31;5083037;27;45739;-67
2022/01/01 06:18:00;;;;;;;;;32.00;29.00;;;;;10.80;84.24;102265.88;5089782;27;45313;-67
2022/01/01 06:20:26;;;;;;;;;38.33;33.00;;;;;10.84;83.85;102271.94;5084305;27;45431;-67
2022/01/01 06:22:51;;;;;;;;;35.75;30.00;;;;;10.84;84.00;102270.09;5080618;27;45512;-67
2022/01/01 06:25:17;;;;;;;;;38.25;31.75;;;;;10.86;83.77;102273.59;5084734;27;47495;-67
2022/01/01 06:27:42;;;;;;;;;35.33;29.33;;;;;10.87;83.61;102271.75;5095389;27;45308;-67
2022/01/01 06:30:08;;;;;;;;;29.33;24.67;;;;;10.84;83.73;102272.81;5075473;28;45178;-67
2022/01/01 06:32:34;;;;;;;;;27.00;25.67;;;;;10.82;83.44;102274.78;5079154;27;45343;-67
2022/01/01 06:34:59;;;;;;;;;26.67;22.00;;;;;10.78;83.45;102272.41;5075069;27;45602;-67
2022/01/01 06:37:25;;;;;;;;;29.33;28.67;;;;;10.70;83.68;102266.66;5081972;28;45365;-67
2022/01/01 06:39:51;;;;;;;;;31.00;28.33;;;;;10.67;83.91;102270.47;5088879;27;45455;-67
2022/01/01 06:42:16;;;;;;;;;29.33;27.00;;;;;10.63;83.43;102262.66;5095395;27;45262;-67
2022/01/01 06:44:42;;;;;;;;;33.67;31.00;;;;;10.57;84.26;102261.25;5075087;27;45299;-67
2022/01/01 06:47:09;;;;;;;;;33.00;27.33;;;;;10.60;84.25;102258.31;5081844;27;45274;-67
2022/01/01 06:49:34;;;;;;;;;31.33;24.67;;;;;10.61;84.13;102256.47;5088248;27;45308;-67
2022/01/01 06:51:59;;;;;;;;;27.67;25.00;;;;;10.60;83.81;102260.16;5073777;27;45596;-67
2022/01/01 06:54:25;;;;;;;;;38.25;33.25;;;;;10.56;83.71;102259.53;5073862;28;46789;-67
2022/01/01 06:56:50;;;;;;;;;31.00;28.33;;;;;10.54;83.77;102256.91;5082396;27;45339;-67
2022/01/01 06:59:15;;;;;;;;;36.50;33.75;;;;;10.51;83.50;102261.72;5074422;28;45407;-67
2022/01/01 07:01:41;;;;;;;;;25.33;24.67;;;;;10.46;83.77;102270.19;5083270;27;45317;-67
2022/01/01 07:04:06;;;;;;;;;28.00;25.00;;;;;10.44;84.08;102269.44;5076658;28;48178;-67
2022/01/01 07:06:33;;;;;;;;;30.00;24.67;;;;;10.43;83.86;102259.56;5075865;28;45168;-67
2022/01/01 07:08:59;;;;;;;;;27.67;26.00;;;;;10.41;84.21;102266.94;5075728;27;45476;-67
2022/01/01 07:11:24;;;;;;;;;32.00;26.00;;;;;10.39;84.00;102270.72;5088275;27;45614;-67
2022/01/01 07:13:50;;;;;;;;;30.00;24.33;;;;;10.32;84.15;102255.84;5077989;27;45677;-67
2022/01/01 07:16:17;;;;;;;;;25.67;22.67;;;;;10.33;84.36;102263.91;5075937;28;45434;-67
2022/01/01 07:18:43;;;;;;;;;34.33;24.00;;;;;10.26;84.22;102264.44;5080707;27;45355;-65
2022/01/01 07:21:09;;;;;;;;;25.33;22.33;;;;;10.24;83.95;102264.53;5089947;27;45228;-66
2022/01/01 07:23:34;;;;;;;;;35.00;28.33;;;;;10.23;84.29;102262.81;5072766;27;45309;-66
2022/01/01 07:25:59;;;;;;;;;28.33;24.67;;;;;10.24;84.06;102267.25;5090675;27;45514;-67
2022/01/01 07:28:24;;;;;;;;;26.00;24.67;;;;;10.16;83.60;102269.63;5081273;27;45225;-66
2022/01/01 07:30:50;;;;;;;;;25.67;21.33;;;;;10.10;83.94;102278.19;5080297;28;45362;-66
2022/01/01 07:33:16;;;;;;;;;30.00;25.50;;;;;10.05;83.74;102281.25;5072955;27;46332;-66
2022/01/01 07:35:42;;;;;;;;;38.00;33.25;;;;;10.05;84.83;102286.69;5073015;28;45353;-66
2022/01/01 07:38:08;;;;;;;;;32.67;29.00;;;;;10.05;83.97;102280.38;5074966;28;45345;-66
2022/01/01 07:40:34;;;;;;;;;39.25;37.25;;;;;10.00;84.09;102288.88;5077107;28;45625;-66
2022/01/01 07:43:10;;;;;;;;;49.00;37.75;;;;;9.96;84.09;102281.88;5077477;27;46457;-67
2022/01/01 07:45:35;;;;;;;;;38.50;36.50;;;;;9.99;84.59;102280.81;5077750;28;45356;-66
2022/01/01 07:48:00;;;;;;;;;34.25;31.75;;;;;9.99;84.68;102273.53;5076439;27;45443;-66
2022/01/01 07:50:26;;;;;;;;;37.00;29.25;;;;;10.01;84.24;102268.84;5071676;27;45444;-66
2022/01/01 07:52:51;;;;;;;;;39.75;34.50;;;;;10.05;84.52;102266.81;5086798;27;46037;-66
2022/01/01 07:55:16;;;;;;;;;42.25;36.75;;;;;9.98;84.89;102279.94;5072638;28;45531;-66
2022/01/01 07:57:42;;;;;;;;;36.25;28.75;;;;;10.00;85.20;102283.44;5082334;28;45417;-66
2022/01/01 08:00:08;;;;;;;;;35.33;29.00;;;;;10.07;84.88;102286.59;5077188;27;45384;-66
2022/01/01 08:02:44;;;;;;;;;34.33;30.00;;;;;10.09;85.07;102281.88;5096654;27;48128;-66
2022/01/01 08:05:11;;;;;;;;;34.33;27.33;;;;;10.12;84.80;102288.00;5079168;28;45329;-66
2022/01/01 08:07:37;;;;;;;;;32.33;30.00;;;;;10.12;84.82;102281.69;5080823;27;45255;-66
2022/01/01 08:10:04;;;;;;;;;32.00;25.00;;;;;10.12;85.10;102281.69;5080987;27;46448;-68
2022/01/01 08:12:29;;;;;;;;;34.33;28.67;;;;;10.18;85.22;102285.84;5095013;27;45458;-66
2022/01/01 08:14:56;;;;;;;;;31.33;29.33;;;;;10.21;84.46;102280.22;5077978;27;45362;-66
2022/01/01 08:17:23;;;;;;;;;27.33;27.00;;;;;10.25;84.43;102284.44;5098125;27;45386;-66
2022/01/01 08:19:49;;;;;;;;;26.67;23.67;;;;;10.27;84.28;102269.78;5093095;27;45614;-66
2022/01/01 08:22:14;;;;;;;;;29.00;26.33;;;;;10.28;83.95;102267.94;5083396;27;45444;-66
2022/01/01 08:24:41;;;;;;;;;27.33;23.00;;;;;10.28;83.88;102257.06;5078811;27;45384;-66
2022/01/01 08:27:06;;;;;;;;;28.33;27.33;;;;;10.29;83.68;102253.38;5099453;27;45207;-66
2022/01/01 08:29:32;;;;;;;;;27.00;25.00;;;;;10.29;83.73;102253.38;5077917;27;45583;-66
2022/01/01 08:31:57;;;;;;;;;26.67;22.67;;;;;10.31;83.63;102259.53;5083961;27;45573;-67
2022/01/01 08:34:23;;;;;;;;;22.33;18.67;;;;;10.35;83.50;102255.63;5073776;27;45236;-66
2022/01/01 08:36:49;;;;;;;;;24.00;22.67;;;;;10.35;83.17;102261.06;5085352;27;45309;-67
2022/01/01 08:39:15;;;;;;;;;25.67;23.67;;;;;10.39;83.09;102263.44;5074669;27;45552;-66
2022/01/01 08:41:40;;;;;;;;;21.33;17.33;;;;;10.41;83.10;102261.50;5085574;28;46353;-66
2022/01/01 08:44:06;;;;;;;;;24.00;22.00;;;;;10.39;82.84;102241.72;5074123;28;45398;-66
2022/01/01 08:46:31;;;;;;;;;20.33;20.33;;;;;10.44;82.96;102257.72;5085941;27;45583;-66
2022/01/01 08:48:57;;;;;;;;;27.33;21.00;;;;;10.43;83.10;102242.38;5078197;27;45383;-66
2022/01/01 08:51:22;;;;;;;;;28.33;24.67;;;;;10.49;83.16;102256.38;5081360;27;46174;-66
2022/01/01 08:53:49;;;;;;;;;19.33;18.00;;;;;10.53;82.62;102257.88;5081299;27;45333;-66
2022/01/01 08:56:15;;;;;;;;;25.33;18.00;;;;;10.58;82.37;102257.56;5080716;27;45242;-66
2022/01/01 08:58:41;;;;;;;;;20.33;18.00;;;;;10.65;82.67;102256.13;5082985;27;45359;-68
2022/01/01 09:01:08;;;;;;;;;25.67;21.33;;;;;10.69;82.25;102254.91;5081643;27;46017;-68
2022/01/01 09:03:35;;;;;;;;;24.33;18.67;;;;;10.70;81.70;102253.94;5086743;27;45350;-67
2022/01/01 09:06:05;;;;;;;;;21.00;20.00;;;;;10.69;81.54;102257.63;5093255;27;45380;-67
2022/01/01 09:08:32;;;;;;;;;17.00;14.33;;;;;10.74;81.12;102254.59;5084018;27;45448;-68
2022/01/01 09:10:58;;;;;;;;;19.67;18.00;;;;;10.84;81.62;102259.22;5085033;27;45532;-66
2022/01/01 09:13:23;;;;;;;;;21.00;20.33;;;;;10.87;81.18;102252.72;5084534;27;45345;-65
2022/01/01 09:15:49;;;;;;;;;24.67;22.00;;;;;10.97;81.50;102244.72;5085668;27;45261;-65
2022/01/01 09:18:15;;;;;;;;;21.33;19.00;;;;;11.01;81.16;102238.06;5090318;27;45320;-66
2022/01/01 09:20:40;;;;;;;;;24.00;20.00;;;;;11.06;81.07;102238.59;5069194;27;45327;-66
2022/01/01 09:23:06;;;;;;;;;22.00;19.00;;;;;11.13;80.99;102226.25;5082623;28;45397;-66
2022/01/01 09:25:31;;;;;;;;;19.67;17.33;;;;;11.15;80.13;102213.41;5089059;27;45239;-66
2022/01/01 09:27:56;;;;;;;;;21.00;18.67;;;;;11.16;79.92;102209.72;5092468;27;45299;-66
2022/01/01 09:30:23;;;;;;;;;18.00;15.00;;;;;11.15;80.14;102214.28;5072978;28;47033;-66
2022/01/01 09:32:48;;;;;;;;;18.67;17.33;;;;;11.14;80.37;102209.84;5083122;27;45360;-66
2022/01/01 09:35:16;;;;;;;;;21.00;18.00;;;;;11.10;80.13;102199.31;5080107;27;45321;-66
2022/01/01 09:37:42;;;;;;;;;19.33;17.67;;;;;11.09;79.92;102203.88;5078272;28;45332;-66
2022/01/01 09:40:08;;;;;;;;;18.67;16.33;;;;;11.01;79.72;102205.44;5075697;27;45326;-67
2022/01/01 09:42:34;;;;;;;;;20.50;19.50;;;;;11.04;80.49;102211.50;5082332;28;45398;-67
2022/01/01 09:44:59;;;;;;;;;19.00;15.67;;;;;11.01;80.34;102206.31;5094534;27;45341;-66
2022/01/01 09:47:25;;;;;;;;;19.00;18.00;;;;;11.04;80.22;102214.22;5095487;27;45464;-67
2022/01/01 09:49:51;;;;;;;;;19.67;19.00;;;;;11.09;80.12;102208.44;5073202;28;45471;-66
2022/01/01 09:52:17;;;;;;;;;18.33;18.33;;;;;11.10;80.19;102210.19;5088221;27;45491;-67
2022/01/01 09:54:43;;;;;;;;;12.00;12.00;;;;;11.12;79.64;102206.34;5077176;27;45431;-66
2022/01/01 09:57:10;;;;;;;;;22.00;19.67;;;;;11.11;79.73;102204.59;5079568;28;45511;-67
2022/01/01 09:59:37;;;;;;;;;18.00;17.67;;;;;11.18;79.65;102213.16;5082552;28;47358;-66
2022/01/01 10:02:03;;;;;;;;;20.33;18.33;;;;;11.23;79.19;102205.56;5081955;27;45442;-66
2022/01/01 10:04:40;;;;;;;;;20.67;17.67;;;;;11.26;79.73;102210.75;5078473;27;45456;-66
2022/01/01 10:07:06;;;;;;;;;18.67;17.00;;;;;11.27;79.09;102212.47;5081603;27;45428;-66
2022/01/01 10:09:33;;;;;;;;;22.33;20.00;;;;;11.30;78.82;102215.84;5073566;27;46209;-67
2022/01/01 10:12:00;;;;;;;;;22.33;20.33;;;;;11.38;79.17;102217.13;5096062;27;45527;-66
2022/01/01 10:14:40;;;;;;;;;19.67;19.67;;;;;11.33;78.73;102222.88;5074524;27;45396;-66
2022/01/01 10:17:23;;;;;;;;;19.33;18.67;;;;;11.36;78.28;102217.22;5098968;27;45607;-67
2022/01/01 10:19:52;;;;;;;;;21.00;17.33;;;;;11.36;78.52;102206.34;5077799;27;46555;-68
2022/01/01 10:22:22;;;;;;;;;20.33;18.00;;;;;11.35;78.20;102207.31;5088259;27;45450;-67
2022/01/01 10:27:58;;;;;;;;;19.00;15.67;;;;;11.38;77.90;102208.94;5114786;27;45393;-66
2022/01/01 10:30:36;;;;;;;;;24.67;19.00;;;;;11.43;77.64;102201.28;5082745;27;45699;-66
2022/01/01 10:33:09;;;;;;;;;16.00;14.00;;;;;11.50;77.85;102206.13;5077297;27;45336;-66
2022/01/01 10:35:49;;;;;;;;;21.67;18.67;;;;;11.52;77.37;102208.75;5078286;28;45287;-66
2022/01/01 10:38:15;;;;;;;;;19.00;14.67;;;;;11.52;77.44;102201.44;5076977;27;45520;-66
2022/01/01 10:40:41;;;;;;;;;16.67;12.67;;;;;11.61;76.99;102203.47;5079051;28;45376;-66
2022/01/01 10:43:07;;;;;;;;;18.00;18.00;;;;;11.56;76.98;102180.28;5078952;27;45386;-66
2022/01/01 10:45:40;;;;;;;;;19.00;17.00;;;;;11.71;76.67;102201.75;5077495;28;45244;-66
2022/01/01 10:48:17;;;;;;;;;13.67;12.00;;;;;11.78;76.65;102201.28;5077692;27;45569;-66
2022/01/01 10:50:44;;;;;;;;;19.00;18.00;;;;;11.77;76.80;102203.13;5069429;28;47182;-66
2022/01/01 10:53:12;;;;;;;;;17.00;15.67;;;;;11.83;76.74;102204.53;5079402;27;45357;-66
2022/01/01 10:55:45;;;;;;;;;16.00;16.00;;;;;11.88;76.71;102192.28;5075315;27;45310;-66
2022/01/01 10:58:38;;;;;;;;;14.00;13.33;;;;;11.92;76.10;102201.94;5086622;27;45389;-66
2022/01/01 11:01:06;;;;;;;;;17.00;17.00;;;;;11.98;76.26;102203.31;5089028;27;47227;-66
2022/01/01 11:03:40;;;;;;;;;14.33;13.00;;;;;11.98;75.93;102206.03;5084178;27;45320;-68
2022/01/01 11:06:10;;;;;;;;;16.00;14.33;;;;;12.03;75.77;102204.69;5080970;27;45191;-68
2022/01/01 11:08:36;;;;;;;;;19.67;17.67;;;;;12.09;75.23;102195.13;5077367;27;45435;-67
2022/01/01 11:11:03;;;;;;;;;19.33;18.00;;;;;12.15;75.56;102191.91;5085727;27;45428;-67
2022/01/01 11:13:30;;;;;;;;;17.67;16.67;;;;;12.19;75.21;102187.97;5083307;27;45726;-67